Uman, Ukraine
Current Conditions -  °F | °C
As of 9:30 PM on Saturday 20 Dec 2014 (Local Time) from UKKK Reporting Station
Scattered Clouds Scattered Clouds  
Wind Chill: 29°   Ceiling: Unl
Heat Index: 36°   Visibility: 6mi
Dew Point: 32°   Wind: 9mph
Humidity: 87%   Direction: 260°W
Pressure: 29.83"   Gusts: NA
Location:  48.75°N, 30.22°E
Report Text: UKKK 201830Z 26004MPS 9999 SCT046 02/M00 Q1010 26290257 NOSIG
Loading
Personal Weather Stations






























Interactive Weather Map New forecast layout! Learn more

10-Day Weather Forecast

Advertisements
Track Severe Weather on mobile